Time;durP1;ratioP1;P1;durP2;ratioP2;P2;SDS_P1;SDS_P2;PMS_P1;PMS_P2;Temp;Humidity;BMP_temperature;BMP_pressure;BME280_temperature;BME280_humidity;BME280_pressure;Samples;Min_cycle;Max_cycle;Signal;HPM_P1;HPM_P2
2022/07/23 00:01:28;;;;;;;4.40;3.83;;;;;;;25.25;48.27;98075.78;5055446;28;20280;-70
2022/07/23 00:03:57;;;;;;;4.45;3.90;;;;;;;25.18;48.30;98048.19;5055820;28;20225;-70
2022/07/23 00:06:24;;;;;;;4.72;4.32;;;;;;;25.09;48.85;98055.50;5055790;28;20216;-70
2022/07/23 00:08:51;;;;;;;3.92;3.67;;;;;;;25.08;48.96;98064.78;5055397;28;20726;-70
2022/07/23 00:11:18;;;;;;;3.88;3.58;;;;;;;25.00;49.50;98050.03;5055660;28;20300;-70
2022/07/23 00:13:45;;;;;;;4.20;3.80;;;;;;;24.96;49.51;98051.78;5055496;28;20312;-70
2022/07/23 00:16:11;;;;;;;3.95;3.65;;;;;;;24.92;49.70;98050.78;5055331;28;20215;-70
2022/07/23 00:18:38;;;;;;;4.35;3.85;;;;;;;24.87;50.21;98041.97;5055519;28;20231;-70
2022/07/23 00:21:04;;;;;;;4.07;3.78;;;;;;;24.81;50.42;98054.06;5055488;28;20201;-70
2022/07/23 00:23:31;;;;;;;4.00;3.60;;;;;;;24.76;50.19;98043.31;5055178;28;20201;-70
2022/07/23 00:25:58;;;;;;;4.40;4.00;;;;;;;24.72;50.58;98047.78;5055314;28;20299;-70
2022/07/23 00:28:24;;;;;;;4.28;3.72;;;;;;;24.69;50.57;98046.47;5055354;28;20226;-70
2022/07/23 00:30:50;;;;;;;4.20;3.80;;;;;;;24.63;50.83;98046.91;5054948;28;20272;-70
2022/07/23 00:33:17;;;;;;;4.10;3.75;;;;;;;24.58;51.22;98038.84;5055090;28;20221;-70
2022/07/23 00:35:43;;;;;;;3.80;3.50;;;;;;;24.57;51.20;98027.19;5054779;28;20280;-70
2022/07/23 00:38:11;;;;;;;4.22;3.80;;;;;;;24.52;51.45;98031.94;5055061;28;20292;-71
2022/07/23 00:40:38;;;;;;;3.90;3.60;;;;;;;24.52;50.99;98034.66;5055064;28;20608;-70
2022/07/23 00:43:05;;;;;;;3.85;3.55;;;;;;;24.48;52.41;98041.81;5055134;28;20205;-70
2022/07/23 00:45:32;;;;;;;4.20;3.75;;;;;;;24.39;53.03;98021.94;5055090;28;20244;-70
2022/07/23 00:47:59;;;;;;;3.72;3.42;;;;;;;24.23;54.95;98017.94;5055073;28;20239;-71
2022/07/23 00:50:26;;;;;;;5.03;3.75;;;;;;;24.04;55.37;98012.69;5054512;28;20236;-70
2022/07/23 00:52:53;;;;;;;4.25;3.90;;;;;;;23.98;55.50;98004.97;5055059;28;20316;-70
2022/07/23 00:55:19;;;;;;;4.50;4.10;;;;;;;23.94;55.87;98010.22;5054796;28;20419;-70
2022/07/23 00:57:46;;;;;;;4.13;3.63;;;;;;;23.87;55.53;98009.78;5054496;28;20694;-70
2022/07/23 01:00:14;;;;;;;4.05;3.65;;;;;;;23.88;54.40;98005.16;5054828;28;20332;-70
2022/07/23 01:02:41;;;;;;;4.13;3.70;;;;;;;23.88;54.45;98005.94;5054376;28;20209;-70
2022/07/23 01:05:09;;;;;;;4.78;3.42;;;;;;;23.87;54.45;98014.41;5055147;28;20295;-70
2022/07/23 01:07:36;;;;;;;4.88;3.85;;;;;;;23.84;54.69;98031.31;5054539;28;20208;-70
2022/07/23 01:10:04;;;;;;;4.07;3.78;;;;;;;23.75;55.00;98016.84;5054521;28;20227;-70
2022/07/23 01:12:30;;;;;;;3.83;3.63;;;;;;;23.76;55.30;98024.69;5054741;28;20251;-70
2022/07/23 01:14:58;;;;;;;3.97;3.67;;;;;;;23.74;55.36;98012.53;5054469;28;20295;-70
2022/07/23 01:17:25;;;;;;;4.20;3.80;;;;;;;23.73;55.44;98019.88;5054379;28;20216;-70
2022/07/23 01:19:51;;;;;;;4.07;3.63;;;;;;;23.66;56.09;98014.03;5053955;28;20708;-70
2022/07/23 01:22:21;;;;;;;3.55;3.35;;;;;;;23.64;55.56;97975.53;5054072;28;20201;-70
2022/07/23 01:24:48;;;;;;;4.45;3.92;;;;;;;23.67;56.42;97979.56;5053840;28;20292;-70
2022/07/23 01:27:14;;;;;;;4.10;3.80;;;;;;;23.55;56.16;98003.69;5054214;28;20251;-70
2022/07/23 01:29:40;;;;;;;3.90;3.70;;;;;;;;;;5054080;28;20229;-70
2022/07/23 01:32:07;;;;;;;3.97;3.67;;;;;;;23.50;56.59;97995.66;5054023;28;20569;-70
2022/07/23 01:34:33;;;;;;;3.63;3.33;;;;;;;23.48;57.01;98003.31;5054102;28;20209;-70
2022/07/23 01:37:00;;;;;;;3.90;3.60;;;;;;;23.45;56.78;97987.63;5052924;28;20570;-70
2022/07/23 01:39:26;;;;;;;4.00;3.70;;;;;;;23.47;56.36;97974.56;5054567;28;20231;-70
2022/07/23 01:41:53;;;;;;;3.55;3.33;;;;;;;23.42;56.87;97967.31;5053954;28;20233;-70
2022/07/23 01:44:19;;;;;;;4.05;3.65;;;;;;;23.40;57.90;97958.69;5053922;28;20300;-70
2022/07/23 01:46:45;;;;;;;3.80;3.50;;;;;;;23.38;58.01;97965.53;5053622;28;20215;-70
2022/07/23 01:49:12;;;;;;;3.78;3.58;;;;;;;23.36;57.90;97979.41;5053517;28;20774;-70
2022/07/23 01:51:59;;;;;;;5.50;3.42;;;;;;;23.32;57.79;97977.59;5053783;28;20232;-70
2022/07/23 01:54:24;;;;;;;4.22;3.70;;;;;;;23.33;57.44;97985.41;5053410;28;20692;-70
2022/07/23 01:56:51;;;;;;;3.78;3.47;;;;;;;23.28;58.66;97977.38;5053782;28;20296;-70
2022/07/23 01:59:17;;;;;;;5.70;4.18;;;;;;;23.23;58.48;97963.94;5053541;28;20319;-70
2022/07/23 02:01:44;;;;;;;4.07;3.70;;;;;;;23.23;58.71;97972.06;5053363;28;20217;-70
2022/07/23 02:04:10;;;;;;;4.00;3.70;;;;;;;23.13;59.29;98002.09;5053260;28;20224;-70
2022/07/23 02:06:36;;;;;;;3.60;3.40;;;;;;;23.09;59.63;98033.63;5053486;28;20228;-70
2022/07/23 02:09:03;;;;;;;3.83;3.53;;;;;;;23.02;60.18;98030.47;5053410;28;20229;-70
2022/07/23 02:11:29;;;;;;;3.85;3.55;;;;;;;22.93;60.44;98026.84;5053492;28;20296;-70
2022/07/23 02:13:56;;;;;;;3.92;3.63;;;;;;;22.96;59.71;98022.72;5053401;28;20221;-70
2022/07/23 02:16:22;;;;;;;4.43;3.92;;;;;;;22.96;59.79;98017.31;5053450;28;20205;-70
2022/07/23 02:18:49;;;;;;;4.20;3.90;;;;;;;22.87;60.55;98025.34;5053357;28;20232;-70
2022/07/23 02:21:15;;;;;;;4.50;4.10;;;;;;;22.85;60.42;98022.13;5053674;28;20205;-70
2022/07/23 02:23:41;;;;;;;4.60;4.20;;;;;;;22.83;59.92;98023.53;5053077;28;20546;-70
2022/07/23 02:26:08;;;;;;;4.10;3.80;;;;;;;22.74;61.09;98025.31;5053306;28;20205;-70
2022/07/23 02:28:34;;;;;;;3.92;3.60;;;;;;;22.75;61.48;98032.34;5053453;28;20321;-70
2022/07/23 02:31:01;;;;;;;4.18;3.88;;;;;;;22.74;60.83;98053.22;5053360;28;20300;-70
2022/07/23 02:33:27;;;;;;;3.83;3.50;;;;;;;22.73;60.81;98058.91;5052958;28;20584;-70
2022/07/23 02:35:54;;;;;;;4.10;3.80;;;;;;;22.65;62.83;98062.34;5053250;28;20296;-70
2022/07/23 02:38:20;;;;;;;4.00;3.70;;;;;;;22.58;62.08;98064.59;5053276;28;20296;-70
2022/07/23 02:40:47;;;;;;;4.20;3.75;;;;;;;22.52;62.61;98065.78;5053009;28;20671;-70
2022/07/23 02:43:13;;;;;;;4.68;4.30;;;;;;;22.43;62.62;98073.72;5053267;28;20209;-70
2022/07/23 02:45:39;;;;;;;4.28;3.97;;;;;;;22.43;63.46;98078.34;5052893;28;20744;-70
2022/07/23 02:48:06;;;;;;;5.47;3.97;;;;;;;22.33;63.04;98094.75;5055384;28;20300;-70
2022/07/23 02:50:32;;;;;;;4.13;3.83;;;;;;;22.35;63.39;98092.56;5056882;28;20212;-70
2022/07/23 02:52:59;;;;;;;4.50;4.10;;;;;;;22.41;62.90;98088.66;5056717;28;20316;-70
2022/07/23 02:55:25;;;;;;;4.38;4.07;;;;;;;22.40;63.31;98098.72;5056837;28;20205;-70
2022/07/23 02:57:52;;;;;;;4.67;4.27;;;;;;;22.45;63.65;98106.81;5057021;28;20209;-70
2022/07/23 03:00:18;;;;;;;3.97;3.67;;;;;;;22.43;63.24;98100.03;5056606;28;20258;-70
2022/07/23 03:02:45;;;;;;;5.77;4.00;;;;;;;22.47;63.42;98096.47;5057010;28;20568;-70
2022/07/23 03:05:11;;;;;;;4.50;4.10;;;;;;;22.47;63.59;98103.81;5057176;28;20208;-70
2022/07/23 03:07:38;;;;;;;4.53;4.13;;;;;;;22.49;63.25;98109.72;5056546;28;20212;-70
2022/07/23 03:10:04;;;;;;;4.07;3.80;;;;;;;22.50;62.53;98112.13;5056706;28;20229;-70
2022/07/23 03:12:30;;;;;;;4.10;3.80;;;;;;;22.47;63.36;98122.78;5056667;28;20308;-70
2022/07/23 03:14:57;;;;;;;4.78;3.70;;;;;;;22.46;63.40;98115.72;5056750;28;20208;-70
2022/07/23 03:17:25;;;;;;;4.18;3.78;;;;;;;22.42;63.45;98120.91;5056365;28;20743;-70
2022/07/23 03:19:51;;;;;;;5.10;4.03;;;;;;;22.35;63.77;98115.06;5056661;28;20225;-70
2022/07/23 03:22:17;;;;;;;4.17;3.87;;;;;;;22.38;63.78;98117.16;5056615;28;20215;-70
2022/07/23 03:24:56;;;;;;;3.97;3.67;;;;;;;22.34;65.02;98109.91;5056280;28;20296;-70
2022/07/23 03:27:28;;;;;;;4.00;3.70;;;;;;;22.32;63.98;98118.34;5056596;28;20200;-70
2022/07/23 03:29:56;;;;;;;4.43;3.77;;;;;;;22.30;65.22;98109.69;5056447;28;20229;-70
2022/07/23 03:32:24;;;;;;;4.30;4.00;;;;;;;22.36;64.24;98096.88;5056058;28;20292;-70
2022/07/23 03:34:50;;;;;;;4.23;3.83;;;;;;;22.32;63.57;98093.94;5055923;28;20210;-70
2022/07/23 03:37:18;;;;;;;4.30;3.97;;;;;;;22.36;63.78;98091.47;5055820;28;20760;-70
2022/07/23 03:39:44;;;;;;;4.40;4.10;;;;;;;22.26;64.57;98091.63;5055881;28;20221;-71
2022/07/23 03:42:11;;;;;;;4.30;4.00;;;;;;;22.23;64.17;98095.72;5056146;28;20300;-70
2022/07/23 03:44:38;;;;;;;4.80;4.13;;;;;;;22.16;64.49;98094.47;5056019;28;20292;-70
2022/07/23 03:47:05;;;;;;;4.70;4.27;;;;;;;22.16;65.79;98094.47;5056084;28;20303;-70
2022/07/23 03:49:31;;;;;;;4.03;3.67;;;;;;;22.15;64.97;98103.69;5055689;28;20806;-70
2022/07/23 03:51:58;;;;;;;4.30;3.90;;;;;;;22.18;64.09;98087.66;5056026;28;20590;-70
2022/07/23 03:54:24;;;;;;;4.47;4.17;;;;;;;22.16;64.79;98091.75;5056058;28;20233;-70
2022/07/23 03:56:51;;;;;;;4.60;4.30;;;;;;;22.19;64.31;98085.75;5056414;28;20296;-70
2022/07/23 03:59:18;;;;;;;4.30;3.90;;;;;;;22.17;64.39;98090.66;5054488;28;20790;-70
2022/07/23 04:01:44;;;;;;;4.77;4.20;;;;;;;22.02;65.50;98101.69;5055854;28;20215;-70
2022/07/23 04:04:11;;;;;;;4.07;3.77;;;;;;;21.98;65.96;98097.97;5055816;28;20213;-70
2022/07/23 04:06:37;;;;;;;4.30;3.93;;;;;;;22.00;65.60;98106.59;5055687;28;20211;-70
2022/07/23 04:09:04;;;;;;;4.27;3.87;;;;;;;22.06;65.46;98105.44;5055574;28;20225;-70
2022/07/23 04:11:30;;;;;;;4.70;4.10;;;;;;;22.07;65.48;98105.13;5055304;28;20762;-70
2022/07/23 04:13:57;;;;;;;4.60;4.20;;;;;;;22.11;65.75;98108.09;5055180;28;20658;-70
2022/07/23 04:16:23;;;;;;;4.57;4.20;;;;;;;22.12;65.38;98115.09;5055566;28;20211;-70
2022/07/23 04:18:50;;;;;;;5.30;4.20;;;;;;;22.20;64.93;98099.00;5055335;28;20265;-70
2022/07/23 04:21:16;;;;;;;4.80;4.03;;;;;;;22.28;64.95;98100.22;5055460;28;20294;-70
2022/07/23 04:23:42;;;;;;;4.93;4.37;;;;;;;22.31;64.84;98114.03;5055061;28;20566;-70
2022/07/23 04:26:09;;;;;;;4.23;3.87;;;;;;;22.34;64.29;98113.41;5055406;28;20296;-70
2022/07/23 04:28:35;;;;;;;4.90;4.40;;;;;;;22.38;64.45;98109.03;5055249;28;20671;-70
2022/07/23 04:31:01;;;;;;;4.33;4.07;;;;;;;22.37;64.45;98106.59;5055300;28;20300;-70
2022/07/23 04:33:28;;;;;;;4.27;3.87;;;;;;;22.45;64.31;98119.50;5055219;28;20312;-70
2022/07/23 04:35:54;;;;;;;4.43;3.80;;;;;;;22.56;63.46;98115.59;5054936;28;20668;-70
2022/07/23 04:38:21;;;;;;;4.00;3.60;;;;;;;22.52;64.38;98112.63;5055197;28;20206;-70
2022/07/23 04:40:47;;;;;;;4.45;4.10;;;;;;;22.57;64.14;98117.19;5054680;28;20690;-70
2022/07/23 04:43:14;;;;;;;4.93;4.53;;;;;;;22.54;64.00;98113.16;5054902;28;20403;-70
2022/07/23 04:45:41;;;;;;;5.60;4.80;;;;;;;22.50;63.35;98109.44;5054481;28;20301;-70
2022/07/23 04:48:07;;;;;;;4.40;4.00;;;;;;;22.57;63.19;98114.47;5054518;28;20759;-70
2022/07/23 04:50:34;;;;;;;4.70;4.30;;;;;;;22.53;63.24;98108.03;5054798;28;20205;-70
2022/07/23 04:53:00;;;;;;;4.63;4.22;;;;;;;22.55;63.27;98111.25;5054758;28;20288;-70
2022/07/23 04:55:27;;;;;;;4.47;4.07;;;;;;;22.64;63.67;98112.19;5054691;28;20619;-70
2022/07/23 04:57:53;;;;;;;5.90;4.50;;;;;;;22.66;63.29;98104.59;5054826;28;20292;-70
2022/07/23 05:00:19;;;;;;;4.28;3.97;;;;;;;22.68;63.14;98105.91;5054238;28;20237;-70
2022/07/23 05:02:46;;;;;;;4.63;4.22;;;;;;;22.74;63.45;98112.84;5054708;28;20634;-70
2022/07/23 05:05:12;;;;;;;4.95;4.43;;;;;;;22.78;63.32;98124.72;5054577;28;20208;-70
2022/07/23 05:07:39;;;;;;;4.72;4.32;;;;;;;22.81;63.21;98126.03;5054401;28;20240;-70
2022/07/23 05:10:05;;;;;;;5.32;4.30;;;;;;;22.99;62.01;98125.19;5054293;28;20232;-70
2022/07/23 05:12:32;;;;;;;6.65;4.68;;;;;;;23.12;61.07;98113.56;5054429;28;20212;-70
2022/07/23 05:14:59;;;;;;;4.88;4.22;;;;;;;23.30;60.74;98120.88;5054272;28;20229;-70
2022/07/23 05:17:26;;;;;;;4.60;4.20;;;;;;;23.44;59.79;98133.38;5053940;28;20676;-70
2022/07/23 05:19:52;;;;;;;4.93;4.53;;;;;;;23.49;59.67;98127.03;5053714;28;20226;-70
2022/07/23 05:22:18;;;;;;;4.65;4.25;;;;;;;23.81;58.87;98126.94;5054006;28;20300;-70
2022/07/23 05:24:45;;;;;;;4.68;4.28;;;;;;;23.66;59.18;98121.81;5053960;28;20288;-70
2022/07/23 05:27:11;;;;;;;4.20;3.90;;;;;;;23.64;59.51;98119.41;5053653;28;20617;-70
2022/07/23 05:29:38;;;;;;;4.68;4.28;;;;;;;23.63;58.95;98123.22;5053930;28;20231;-70
2022/07/23 05:32:04;;;;;;;4.63;4.22;;;;;;;23.63;59.38;98138.69;5053678;28;20695;-70
2022/07/23 05:34:31;;;;;;;4.78;4.38;;;;;;;23.67;58.50;98147.84;5053857;28;20225;-70
2022/07/23 05:36:57;;;;;;;5.65;4.57;;;;;;;23.70;58.96;98150.75;5054052;28;20220;-70
2022/07/23 05:39:24;;;;;;;4.50;4.10;;;;;;;23.34;60.03;98157.16;5053492;28;20809;-70
2022/07/23 05:41:50;;;;;;;5.32;4.78;;;;;;;23.18;60.70;98151.16;5053728;28;20304;-70
2022/07/23 05:44:16;;;;;;;4.60;4.20;;;;;;;23.19;61.22;98149.25;5053337;28;20212;-70
2022/07/23 05:46:43;;;;;;;4.90;4.40;;;;;;;23.23;60.75;98158.41;5053857;28;20201;-70
2022/07/23 05:49:09;;;;;;;4.30;4.00;;;;;;;23.30;60.01;98156.16;5053414;28;20312;-70
2022/07/23 05:51:36;;;;;;;4.72;4.38;;;;;;;23.35;59.62;98165.00;5053748;28;20236;-70
2022/07/23 05:54:02;;;;;;;4.97;4.18;;;;;;;23.38;59.05;98161.69;5053572;28;20228;-71
2022/07/23 05:56:29;;;;;;;4.80;4.43;;;;;;;23.45;58.94;98170.25;5053627;28;20294;-71
2022/07/23 05:58:55;;;;;;;5.20;4.70;;;;;;;;;;5053407;28;20275;-70
2022/07/23 06:01:21;;;;;;;5.03;4.47;;;;;;;23.52;57.86;98172.56;5053219;28;20590;-70
2022/07/23 06:03:48;;;;;;;4.47;4.00;;;;;;;23.47;58.44;98178.88;5053317;28;20201;-70
2022/07/23 06:06:14;;;;;;;5.10;4.70;;;;;;;23.59;58.25;98183.84;5053327;28;20205;-70
2022/07/23 06:08:40;;;;;;;4.35;4.05;;;;;;;23.56;59.61;98187.94;5053117;28;20221;-70
2022/07/23 06:11:07;;;;;;;5.07;4.70;;;;;;;23.52;59.03;98186.16;5053298;28;20213;-70
2022/07/23 06:13:33;;;;;;;4.53;4.13;;;;;;;23.49;58.65;98173.97;5052934;28;20220;-70
2022/07/23 06:15:59;;;;;;;5.20;4.75;;;;;;;23.59;59.18;98168.38;5053351;28;20205;-70
2022/07/23 06:18:26;;;;;;;5.22;4.72;;;;;;;23.75;56.95;98160.75;5052876;28;20228;-70
2022/07/23 06:20:52;;;;;;;5.22;4.82;;;;;;;23.43;58.02;98149.94;5053301;28;20297;-70
2022/07/23 06:23:19;;;;;;;4.40;4.10;;;;;;;23.59;60.02;98154.78;5052785;28;20292;-70
2022/07/23 06:25:45;;;;;;;4.88;4.47;;;;;;;23.83;58.03;98151.91;5053096;28;20605;-70
2022/07/23 06:28:11;;;;;;;4.72;4.32;;;;;;;23.77;58.08;98155.81;5053578;28;20209;-70
2022/07/23 06:30:38;;;;;;;5.05;4.65;;;;;;;23.80;57.53;98161.47;5053849;28;20214;-70
2022/07/23 06:33:05;;;;;;;4.95;4.40;;;;;;;23.58;57.16;98174.09;5053081;28;20201;-70
2022/07/23 06:35:33;;;;;;;5.15;4.70;;;;;;;23.39;58.67;98173.34;5052698;28;20596;-70
2022/07/23 06:38:00;;;;;;;4.93;4.50;;;;;;;23.36;56.71;98168.50;5053293;28;20202;-70
2022/07/23 06:40:26;;;;;;;5.22;4.72;;;;;;;23.47;57.64;98178.88;5052991;28;20315;-70
2022/07/23 06:42:52;;;;;;;5.63;5.00;;;;;;;23.43;57.09;98182.50;5053277;28;20209;-70
2022/07/23 06:45:19;;;;;;;5.78;5.05;;;;;;;23.74;56.63;98178.16;5053044;28;20266;-70
2022/07/23 06:47:45;;;;;;;5.15;4.75;;;;;;;23.68;56.82;98188.28;5053078;28;20205;-70
2022/07/23 06:50:12;;;;;;;5.18;4.68;;;;;;;23.80;55.63;98185.91;5052924;28;20310;-70
2022/07/23 06:52:38;;;;;;;5.07;4.68;;;;;;;23.80;55.36;98198.66;5052851;28;20288;-71
2022/07/23 06:55:05;;;;;;;5.65;5.13;;;;;;;23.65;56.16;98216.00;5052891;28;20232;-70
2022/07/23 06:57:32;;;;;;;5.60;5.10;;;;;;;23.47;56.69;98210.66;5052517;28;20664;-70
2022/07/23 06:59:58;;;;;;;5.28;4.88;;;;;;;23.26;57.59;98218.34;5052479;28;20778;-70
2022/07/23 07:02:24;;;;;;;5.50;4.97;;;;;;;23.34;58.28;98225.00;5052472;28;20296;-70
2022/07/23 07:04:52;;;;;;;6.60;5.17;;;;;;;23.02;59.15;98228.44;5052917;28;20293;-70
2022/07/23 07:07:18;;;;;;;5.70;4.80;;;;;;;23.03;59.14;98224.66;5052452;28;20213;-70
2022/07/23 07:09:45;;;;;;;6.13;5.53;;;;;;;22.95;59.58;98228.00;5052166;28;20780;-70
2022/07/23 07:12:11;;;;;;;7.03;5.47;;;;;;;22.94;60.32;98225.59;5053533;28;20209;-70
2022/07/23 07:14:38;;;;;;;7.43;5.90;;;;;;;23.01;60.27;98228.75;5052375;28;20806;-70
2022/07/23 07:17:04;;;;;;;6.70;5.13;;;;;;;22.99;60.78;98234.47;5052569;28;20296;-70
2022/07/23 07:19:31;;;;;;;5.63;5.13;;;;;;;23.14;59.59;98222.56;5052606;28;20316;-70
2022/07/23 07:21:57;;;;;;;5.23;4.83;;;;;;;22.96;60.91;98223.38;5052664;28;20631;-70
2022/07/23 07:24:24;;;;;;;5.80;5.30;;;;;;;22.76;61.51;98205.53;5052151;28;20212;-70
2022/07/23 07:26:50;;;;;;;6.30;5.10;;;;;;;23.00;61.73;98189.97;5052212;28;20205;-70
2022/07/23 07:29:16;;;;;;;5.67;5.27;;;;;;;22.64;62.54;98198.91;5051934;28;20240;-70
2022/07/23 07:31:43;;;;;;;7.07;5.30;;;;;;;22.49;65.75;98218.09;5052409;28;20301;-70
2022/07/23 07:34:09;;;;;;;6.27;5.67;;;;;;;22.42;68.17;98217.59;5052707;28;20591;-70
2022/07/23 07:36:36;;;;;;;6.07;4.97;;;;;;;22.24;69.72;98237.38;5056091;28;20201;-70
2022/07/23 07:39:04;;;;;;;6.43;5.80;;;;;;;22.07;70.73;98239.72;5055822;28;20225;-70
2022/07/23 07:41:32;;;;;;;7.00;5.90;;;;;;;21.99;71.05;98234.94;5055568;28;20671;-70
2022/07/23 07:43:58;;;;;;;8.07;6.00;;;;;;;21.82;71.60;98246.22;5056107;28;20555;-70
2022/07/23 07:46:27;;;;;;;6.57;5.97;;;;;;;22.09;71.33;98245.66;5055377;28;20201;-70
2022/07/23 07:48:54;;;;;;;5.57;5.07;;;;;;;22.04;70.70;98248.41;5055517;28;20337;-70
2022/07/23 07:51:20;;;;;;;5.37;4.87;;;;;;;22.13;70.07;98258.34;5055459;28;20211;-70
2022/07/23 07:53:47;;;;;;;5.30;4.90;;;;;;;22.04;69.56;98279.00;5055632;28;20288;-70
2022/07/23 07:56:13;;;;;;;6.13;5.60;;;;;;;22.05;69.86;98279.81;5055344;28;20236;-70
2022/07/23 07:58:39;;;;;;;5.80;5.30;;;;;;;22.10;68.75;98280.56;5055156;28;20711;-70
2022/07/23 08:01:06;;;;;;;5.70;5.20;;;;;;;22.25;68.84;98287.72;5055168;28;20200;-70
2022/07/23 08:03:32;;;;;;;5.60;5.10;;;;;;;22.51;69.17;98291.75;5055228;28;20205;-70
2022/07/23 08:05:59;;;;;;;5.67;5.07;;;;;;;22.46;67.43;98291.81;5055433;28;20208;-70
2022/07/23 08:08:25;;;;;;;5.03;4.63;;;;;;;22.65;68.48;98290.78;5055283;28;20228;-70
2022/07/23 08:10:52;;;;;;;5.70;5.20;;;;;;;22.05;68.49;98287.94;5055353;28;20205;-70
2022/07/23 08:13:18;;;;;;;5.67;5.17;;;;;;;22.57;68.27;98301.47;5055460;28;20210;-70
2022/07/23 08:15:45;;;;;;;6.03;5.40;;;;;;;22.48;67.56;98297.78;5054921;28;20794;-70
2022/07/23 08:18:11;;;;;;;6.00;5.50;;;;;;;22.68;67.40;98298.34;5054939;28;20212;-70
2022/07/23 08:20:38;;;;;;;5.77;5.23;;;;;;;22.63;66.66;98298.41;5054655;28;20209;-70
2022/07/23 08:23:07;;;;;;;5.90;5.40;;;;;;;22.88;65.43;98287.22;5055102;28;20607;-70
2022/07/23 08:25:38;;;;;;;5.20;4.80;;;;;;;22.50;66.99;98280.13;5055026;28;20208;-70
2022/07/23 08:28:07;;;;;;;6.10;5.60;;;;;;;22.43;67.40;98278.84;5054863;28;20280;-71
2022/07/23 08:30:34;;;;;;;5.23;4.83;;;;;;;22.77;64.77;98282.22;5054915;28;20205;-70
2022/07/23 08:33:01;;;;;;;5.70;5.20;;;;;;;22.92;63.68;98276.59;5054965;28;20292;-70
2022/07/23 08:35:34;;;;;;;5.43;5.00;;;;;;;22.85;63.52;98276.97;5054980;28;20225;-70
2022/07/23 08:38:02;;;;;;;5.30;4.80;;;;;;;22.63;63.80;98279.44;5054499;28;20209;-70
2022/07/23 08:40:40;;;;;;;5.50;5.00;;;;;;;22.72;64.50;98279.59;5054716;28;20235;-70
2022/07/23 08:43:14;;;;;;;5.00;4.60;;;;;;;22.91;63.62;98285.81;5054779;28;20204;-70
2022/07/23 08:45:47;;;;;;;5.10;4.68;;;;;;;23.36;62.07;98274.31;5054191;28;20632;-70
2022/07/23 08:48:16;;;;;;;5.93;5.35;;;;;;;23.58;61.07;98271.78;5054457;28;20296;-70
2022/07/23 08:50:45;;;;;;;5.03;4.63;;;;;;;23.68;59.75;98267.00;5054730;28;20675;-70
2022/07/23 08:53:11;;;;;;;5.25;4.85;;;;;;;23.65;58.15;98258.66;5054408;28;20209;-70
2022/07/23 08:55:38;;;;;;;5.00;4.60;;;;;;;23.54;57.75;98273.50;5054538;28;20225;-70
2022/07/23 08:58:04;;;;;;;5.10;4.70;;;;;;;23.91;57.15;98267.97;5054742;28;20201;-70
2022/07/23 09:00:31;;;;;;;4.72;4.35;;;;;;;24.04;57.85;98267.19;5054500;28;20324;-71
2022/07/23 09:02:57;;;;;;;5.60;4.78;;;;;;;23.97;58.36;98261.38;5054243;28;20676;-70
2022/07/23 09:05:24;;;;;;;5.00;4.60;;;;;;;24.34;58.39;98264.69;5054378;28;20211;-70
2022/07/23 09:08:14;;;;;;;6.18;4.72;;;;;;;24.64;57.26;98272.28;5054100;28;20691;-70
2022/07/23 09:11:00;;;;;;;4.97;4.57;;;;;;;25.19;56.09;98272.97;5054211;28;20211;-70
2022/07/23 09:13:53;;;;;;;5.45;5.00;;;;;;;25.38;55.17;98268.19;5054015;28;20720;-70
2022/07/23 09:16:30;;;;;;;5.13;4.68;;;;;;;25.48;54.89;98273.38;5054270;28;20210;-70
2022/07/23 09:18:59;;;;;;;5.38;4.88;;;;;;;25.89;50.99;98260.34;5053851;28;20247;-70
2022/07/23 09:21:30;;;;;;;5.10;4.65;;;;;;;24.63;52.91;98259.78;5054283;28;20212;-70
2022/07/23 09:24:07;;;;;;;4.85;4.53;;;;;;;25.34;52.16;98256.28;5054126;28;20667;-70
2022/07/23 09:26:38;;;;;;;5.00;4.60;;;;;;;25.65;51.73;98257.16;5053858;28;20207;-70
2022/07/23 09:29:07;;;;;;;5.05;4.38;;;;;;;25.58;52.33;98254.06;5054320;28;20268;-70
2022/07/23 09:31:34;;;;;;;5.20;4.80;;;;;;;25.62;52.42;98257.75;5053532;28;20687;-70
2022/07/23 09:34:15;;;;;;;5.25;4.78;;;;;;;25.54;53.55;98255.78;5054390;28;20208;-70
2022/07/23 09:36:42;;;;;;;5.72;5.25;;;;;;;25.47;53.54;98255.44;5053259;28;20193;-70
2022/07/23 09:39:09;;;;;;;7.03;5.20;;;;;;;25.27;53.41;98251.28;5053294;28;20313;-70
2022/07/23 09:41:41;;;;;;;5.72;5.20;;;;;;;25.36;53.74;98256.78;5052873;28;20691;-70
2022/07/23 09:44:15;;;;;;;5.35;4.82;;;;;;;25.50;52.74;98254.78;5053289;28;20285;-70
2022/07/23 09:46:43;;;;;;;5.22;4.68;;;;;;;25.49;50.74;98245.84;5053495;28;20205;-70
2022/07/23 09:49:21;;;;;;;4.95;4.53;;;;;;;26.08;49.93;98247.31;5053470;28;20230;-70
2022/07/23 09:51:57;;;;;;;5.55;5.05;;;;;;;26.41;49.53;98248.56;5053243;28;20205;-70
2022/07/23 09:54:34;;;;;;;5.28;4.65;;;;;;;26.62;49.16;98246.88;5053219;28;20205;-70
2022/07/23 09:57:05;;;;;;;4.82;4.43;;;;;;;26.53;50.23;98251.47;5052594;28;20189;-70
2022/07/23 09:59:34;;;;;;;4.80;4.40;;;;;;;26.73;46.96;98256.41;5052935;28;20603;-70
2022/07/23 10:02:01;;;;;;;4.97;4.57;;;;;;;26.50;47.04;98257.59;5053098;28;20208;-70
2022/07/23 10:04:29;;;;;;;5.20;4.70;;;;;;;27.01;45.66;98254.97;5053047;28;20300;-70
2022/07/23 10:06:59;;;;;;;4.93;4.50;;;;;;;26.98;46.11;98250.16;5052939;28;20205;-70
2022/07/23 10:09:30;;;;;;;4.60;4.30;;;;;;;26.19;46.42;98254.09;5053216;28;20647;-70
2022/07/23 10:12:12;;;;;;;5.95;5.32;;;;;;;26.52;46.31;98247.16;5053007;28;20193;-70
2022/07/23 10:14:42;;;;;;;5.10;4.70;;;;;;;27.19;45.15;98253.06;5052977;28;20213;-70
2022/07/23 10:17:09;;;;;;;4.53;4.20;;;;;;;27.12;45.80;98250.78;5053146;28;20209;-70
2022/07/23 10:19:36;;;;;;;5.18;4.80;;;;;;;27.09;44.24;98240.53;5052825;28;20316;-70
2022/07/23 10:22:03;;;;;;;4.72;4.32;;;;;;;27.29;45.56;98248.09;5052947;28;20296;-70
2022/07/23 10:24:45;;;;;;;4.57;4.28;;;;;;;26.90;44.74;98250.94;5052901;28;20197;-70
2022/07/23 10:27:59;;;;;;;4.90;4.60;;;;;;;26.73;46.67;98254.44;5052817;28;20197;-70
2022/07/23 10:30:46;;;;;;;4.70;4.40;;;;;;;26.78;45.50;98258.97;4971637;28;20227;-70
2022/07/23 10:33:39;;;;;;;5.43;5.03;;;;;;;27.25;46.22;98249.06;4971794;28;20202;-70
2022/07/23 10:36:18;;;;;;;5.47;5.07;;;;;;;26.43;46.63;98252.59;5035834;28;20243;-70
2022/07/23 10:38:56;;;;;;;4.88;4.57;;;;;;;27.33;46.03;98246.34;5051588;28;20656;-70
2022/07/23 10:41:34;;;;;;;5.10;4.70;;;;;;;27.28;44.72;98251.16;5053025;28;20190;-70
2022/07/23 10:44:08;;;;;;;4.78;4.32;;;;;;;27.24;45.08;98252.91;5052404;28;20205;-70
2022/07/23 10:46:39;;;;;;;5.10;4.70;;;;;;;27.41;45.23;98242.00;5052419;28;20635;-70
2022/07/23 10:49:23;;;;;;;4.97;4.57;;;;;;;27.31;44.93;98247.78;5052241;28;20237;-70
2022/07/23 10:52:14;;;;;;;4.45;4.10;;;;;;;27.32;42.94;98244.75;5052291;28;20216;-70
2022/07/23 10:54:45;;;;;;;4.65;4.22;;;;;;;27.74;43.00;98243.88;5052713;28;20201;-70
2022/07/23 10:57:14;;;;;;;4.72;4.32;;;;;;;26.96;43.49;98241.50;5052569;28;20321;-70
2022/07/23 11:00:03;;;;;;;4.70;4.30;;;;;;;27.13;43.80;98232.50;5050923;28;20716;-70
2022/07/23 11:02:31;;;;;;;4.45;4.05;;;;;;;27.34;43.99;98237.00;5052524;28;20285;-70
2022/07/23 11:05:04;;;;;;;4.72;4.32;;;;;;;28.25;43.58;98232.00;5052509;28;20293;-70
2022/07/23 11:07:31;;;;;;;4.80;4.50;;;;;;;27.99;43.02;98229.34;5052468;28;20232;-70
2022/07/23 11:09:58;;;;;;;5.28;4.78;;;;;;;27.73;44.56;98230.53;5055505;28;20339;-70
2022/07/23 11:12:30;;;;;;;5.00;4.63;;;;;;;27.76;42.64;98225.19;5056155;28;20216;-71
2022/07/23 11:15:09;;;;;;;5.18;4.68;;;;;;;27.66;43.98;98233.75;5056191;28;20335;-70
2022/07/23 11:17:52;;;;;;;4.90;4.50;;;;;;;28.01;42.59;98224.38;5056835;28;20209;-70
2022/07/23 11:20:21;;;;;;;5.03;4.63;;;;;;;27.47;43.25;98230.56;5056517;28;20683;-70
2022/07/23 11:22:50;;;;;;;4.80;4.40;;;;;;;27.20;43.65;98220.00;5056197;28;20205;-70
2022/07/23 11:25:22;;;;;;;4.80;4.40;;;;;;;27.18;44.79;98238.63;5056026;28;20223;-70
2022/07/23 11:27:51;;;;;;;5.10;4.70;;;;;;;27.51;43.44;98226.06;5056044;28;20211;-70
2022/07/23 11:30:39;;;;;;;5.40;4.80;;;;;;;27.35;44.92;98221.44;5056095;28;20319;-70
2022/07/23 11:33:08;;;;;;;4.95;4.60;;;;;;;26.99;44.93;98235.38;5055936;28;20682;-70
2022/07/23 11:35:36;;;;;;;4.82;4.50;;;;;;;27.26;45.15;98246.00;5056031;28;20225;-70
2022/07/23 11:38:09;;;;;;;4.80;4.50;;;;;;;27.07;44.51;98236.53;5055567;28;20205;-70
2022/07/23 11:40:36;;;;;;;5.05;4.65;;;;;;;27.46;44.02;98231.72;5055940;28;20288;-70